Ecorse, Michigan
Current Conditions -  °F | °C
As of 9:00 AM on Friday 24 Oct 2014 (Local Time) from CYQG Reporting Station
Scattered Clouds Scattered Clouds  
Wind Chill: 34°   Ceiling: Unl
Heat Index: 39°   Visibility: 8mi
Dew Point: 37°   Wind: 7mph
Humidity: 93%   Direction: 260°W
Pressure: 30.09"   Gusts: NA
Location:  42.26°N, 83.14°W
Report Text: CYQG 241300Z 26006KT 8SM FEW140 SCT280 04/03 A3009 RMK AC1CI2 SLP194
Loading
Personal Weather Stations






























Interactive Weather Map
Tropical Storm Tracking
New forecast layout! Learn more

10-Day Weather Forecast

Advertisements
Track Severe Weather on mobile